Terminal Aerodrome Forecast
Issued by NWS

Current Version | Previous Version | Text Only | Print | Product List | Glossary On
Versions: 1 2 3 4 5 6 7 8 9 10 11 12 13 14 15 16 17 18
000
FTUS42 KMLB 010946 AAA
TAFSFB
TAF AMD
KSFB 010946Z 0110/0206 10007KT P6SM SCT025 BKN035
      TEMPO 0111/0113 5SM BR BKN025 OVC035
     FM011400 12006KT P6SM SCT006 BKN020
     FM011800 13009KT P6SM BKN040
      TEMPO 0118/0122 3SM SHRA BKN025
     FM020000 10006KT P6SM SCT030 SCT060 BKN100=

USA.gov is the U.S. government's official web portal to all federal, state and local government web resources and services.